Flight Track Log - Related Links

Times and Time Zones

All times are in EDT time to prevent confusion due to time zone crossing. See the SKW7377 flight status page for this flight to view local times or setup timezone preferences in your user account.

Time Position Orientation Groundspeed Altitude Reporting Facility
EDT Latitude Longitude Course Direction KTS MPH feet Rate Location/Type
Thu 01:28:27 PM 40.7692 -111.9978 221° Southwest 191 220 5,000  Level Salt Lake Center
Thu 01:28:57 PM 40.7517 -112.0178 221° Southwest 185 213 5,900 1,648 Climbing Salt Lake Center
Thu 01:29:58 PM 40.7722 -112.0900 291° West 246 283 7,500 1,462 Climbing Salt Lake Center
Thu 01:30:15 PM 40.7847 -112.1011 326° Northwest 253 291 7,800 2,262 Climbing Salt Lake Center
Thu 01:30:59 PM 40.8267 -112.1594 314° West 268 308 9,800 2,226 Climbing Salt Lake Center
Thu 01:31:17 PM 40.8378 -112.1703 324° Northwest 266 306 10,100 1,770 Climbing Salt Lake Center
Thu 01:32:00 PM 40.9028 -112.1850 350° North 306 352 11,600 1,645 Climbing Salt Lake Center
Thu 01:32:19 PM 40.9183 -112.1761 23° Northeast 309 356 11,800 1,200 Climbing Salt Lake Center
Thu 01:33:20 PM 41.0072 -112.1294 22° Northeast 339 390 13,200 1,610 Climbing Salt Lake Center
Thu 01:34:22 PM 41.1011 -112.0767 23° Northeast 358 412 15,100 1,742 Climbing Salt Lake Center
Thu 01:35:24 PM 41.2019 -112.0828 357° North 361 415 16,800 1,756 Climbing Salt Lake Center
Thu 01:36:25 PM 41.3250 -112.0989 354° North 368 423 18,700 1,659 Climbing Salt Lake Center
Thu 01:37:27 PM 41.4286 -112.1131 354° North 372 428 20,200 1,258 Climbing Salt Lake Center
Thu 01:38:29 PM 41.5314 -112.1364 350° North 376 433 21,300 1,073 Climbing Salt Lake Center
Thu 01:39:30 PM 41.6317 -112.1767 343° North 378 435 22,400 1,024 Climbing Salt Lake Center
Thu 01:40:32 PM 41.7342 -112.2164 344° North 384 442 23,400 968 Climbing Salt Lake Center
Thu 01:41:34 PM 41.8403 -112.2372 352° North 382 440 24,400 968 Climbing Salt Lake Center
Thu 01:42:36 PM 41.9528 -112.2481 356° North 401 461 25,400 774 Climbing Salt Lake Center
Thu 01:43:38 PM 42.0889 -112.2642 355° North 410 472 26,000 293 Climbing Salt Lake Center
Thu 01:44:39 PM 42.2053 -112.2767 355° North 418 481 26,000  Level Salt Lake Center
Thu 01:45:41 PM 42.3228 -112.2903 355° North 423 487 26,000  Level Salt Lake Center
Thu 01:46:43 PM 42.4400 -112.3036 355° North 423 487 26,000  Level Salt Lake Center
Thu 01:47:45 PM 42.5578 -112.3178 355° North 425 489 26,000  Level Salt Lake Center
Thu 01:48:47 PM 42.6761 -112.3308 355° North 426 490 26,000  Level Salt Lake Center
Thu 01:49:49 PM 42.8039 -112.3464 355° North 428 493 26,000  Level Salt Lake Center
Thu 01:50:51 PM 42.9361 -112.3622 355° North 426 490 26,000  Level Salt Lake Center
Thu 01:51:53 PM 43.0511 -112.3761 355° North 432 497 26,000  Level Salt Lake Center
Thu 01:52:55 PM 43.1842 -112.3914 355° North 432 497 26,000  Level Salt Lake Center
Thu 01:53:57 PM 43.2978 -112.4042 355° North 429 494 26,000  Level Salt Lake Center
Thu 01:54:59 PM 43.4325 -112.4211 355° North 433 498 26,000  Level Salt Lake Center
Thu 01:56:01 PM 43.5481 -112.4347 355° North 435 501 26,000  Level Salt Lake Center
Thu 01:57:03 PM 43.6625 -112.4478 355° North 433 498 26,000  Level Salt Lake Center
Thu 01:58:05 PM 43.7972 -112.4639 355° North 433 498 26,000  Level Salt Lake Center
Thu 01:59:07 PM 43.9150 -112.4797 354° North 439 505 26,000  Level Salt Lake Center
Thu 02:00:09 PM 44.0486 -112.4961 355° North 435 501 26,000  Level Salt Lake Center
Thu 02:01:11 PM 44.1650 -112.5100 355° North 436 502 26,000  Level Salt Lake Center
Thu 02:02:13 PM 44.3006 -112.5272 355° North 436 502 26,000  Level Salt Lake Center
Thu 02:03:15 PM 44.4175 -112.5414 355° North 437 503 26,000  Level Salt Lake Center
Thu 02:04:17 PM 44.5511 -112.5594 354° North 436 502 26,000  Level Salt Lake Center
Thu 02:05:18 PM 44.6675 -112.5739 355° North 436 502 26,000 -976 Level Salt Lake Center
Thu 02:06:20 PM 44.7883 -112.5881 355° North 448 516 24,000 -1,887 Descending Salt Lake Center
Thu 02:07:22 PM 44.9336 -112.6072 355° North 464 534 22,100 -1,452 Descending Salt Lake Center
Thu 02:08:24 PM 45.0531 -112.6228 355° North 456 525 21,000 -2,129 Descending Salt Lake Center
Thu 02:09:26 PM 45.1931 -112.6411 355° North 451 519 17,700 -2,952 Descending Salt Lake Center
Thu 02:10:28 PM 45.3086 -112.6542 355° North 443 510 14,900 -2,274 Descending Salt Lake Center
Thu 02:11:30 PM 45.4322 -112.6667 356° North 419 482 13,000 -927 Descending Salt Lake Center
Thu 02:12:31 PM 45.5278 -112.6736 357° North 387 445 13,000 -98 Level Salt Lake Center
Thu 02:13:33 PM 45.6067 -112.6714 North 336 387 12,800 -484 Descending Salt Lake Center
Thu 02:14:35 PM 45.6833 -112.6739 359° North 287 330 12,000 -387 Descending Salt Lake Center
Thu 02:15:37 PM 45.7789 -112.6844 356° North 313 360 12,000 -919 Level Salt Lake Center
Thu 02:16:39 PM 45.8894 -112.6736 North 326 375 10,100 -1,306 Descending Salt Lake Center
Thu 02:17:41 PM 45.9608 -112.6558 10° North 316 364 9,300 -774 Descending Salt Lake Center
Thu 02:19:00 PM 45.9548 -112.4975 90° East  Level Estimated
Thu 02:26:00 PM 45.9548 -112.4975 90° East  Level Estimated

Login

Don't have an account? Register now (free) for customized features, flight alerts, and more!